CMP6767 MPTO-SEQM
Flight info
| Callsign | CMP6767 |
|---|---|
| Flight time | N/A |
| Altitude | 37000 |
| Route | TBG UM674 QIT |
| Aircraft | B738/M-SDE2E3FGHIRWXY/LB1 |
Departure
| Time | 2026-05-05 22:45 |
|---|---|
| Airport | Tocumen International Airport (MPTO) |
Arrival
| Time | N/A |
|---|---|
| Airport | Mariscal Sucre International Airport (SEQM) |
| Time | Latitude | Longitude | Altitude | Speed | Heading |
|---|---|---|---|---|---|
| 2026-05-05 22:16 | 9.07002 | -79.38654 | 30 ft | 0 kts | 121° |
| 2026-05-05 22:35 | 9.07008 | -79.38665 | 30 ft | 4 kts | 126° |
| 2026-05-05 22:35 | 9.07026 | -79.38682 | 30 ft | 4 kts | 163° |
| 2026-05-05 22:35 | 9.07044 | -79.38686 | 29 ft | 0 kts | 181° |
| 2026-05-05 22:38 | 9.07050 | -79.38685 | 28 ft | 2 kts | 181° |
| 2026-05-05 22:38 | 9.07051 | -79.38685 | 27 ft | 0 kts | 181° |
| 2026-05-05 22:40 | 9.07045 | -79.38683 | 30 ft | 6 kts | 157° |
| 2026-05-05 22:40 | 9.07106 | -79.38612 | 31 ft | 26 kts | 20° |
| 2026-05-05 22:41 | 9.07299 | -79.38546 | 33 ft | 28 kts | 23° |
| 2026-05-05 22:41 | 9.07424 | -79.38421 | 32 ft | 26 kts | 95° |
| 2026-05-05 22:41 | 9.07271 | -79.38382 | 30 ft | 25 kts | 156° |
| 2026-05-05 22:41 | 9.07143 | -79.38215 | 29 ft | 41 kts | 118° |
| 2026-05-05 22:42 | 9.07168 | -79.38094 | 29 ft | 17 kts | 2° |
| 2026-05-05 22:42 | 9.07214 | -79.38012 | 29 ft | 16 kts | 111° |
| 2026-05-05 22:42 | 9.07142 | -79.37930 | 29 ft | 15 kts | 151° |
| 2026-05-05 22:42 | 9.07064 | -79.37949 | 29 ft | 8 kts | 213° |
| 2026-05-05 22:43 | 9.07040 | -79.37964 | 29 ft | 0 kts | 211° |
| 2026-05-05 22:44 | 9.06989 | -79.37994 | 29 ft | 35 kts | 210° |
| 2026-05-05 22:44 | 9.06562 | -79.38239 | 28 ft | 104 kts | 210° |
| 2026-05-05 22:44 | 9.05756 | -79.38696 | 41 ft | 158 kts | 209° |
| 2026-05-05 22:44 | 9.04737 | -79.39283 | 469 ft | 171 kts | 210° |
| 2026-05-05 22:45 | 9.03689 | -79.39882 | 1076 ft | 179 kts | 210° |
| 2026-05-05 22:45 | 9.02616 | -79.40471 | 1785 ft | 177 kts | 209° |
| 2026-05-05 22:45 | 9.01483 | -79.41098 | 2216 ft | 199 kts | 209° |
| 2026-05-05 22:45 | 9.00181 | -79.41825 | 2458 ft | 227 kts | 210° |
| 2026-05-05 22:46 | 8.98737 | -79.42640 | 2725 ft | 246 kts | 210° |
| 2026-05-05 22:46 | 8.97215 | -79.43505 | 3257 ft | 254 kts | 209° |
| 2026-05-05 22:46 | 8.95607 | -79.44423 | 3667 ft | 274 kts | 210° |
| 2026-05-05 22:46 | 8.93929 | -79.45386 | 4443 ft | 277 kts | 210° |
| 2026-05-05 22:47 | 8.92232 | -79.46361 | 5148 ft | 283 kts | 210° |
| 2026-05-05 22:47 | 8.90514 | -79.47349 | 5901 ft | 286 kts | 210° |
| 2026-05-05 22:47 | 8.88774 | -79.48348 | 6617 ft | 289 kts | 209° |
| 2026-05-05 22:47 | 8.87003 | -79.49330 | 7311 ft | 292 kts | 208° |
| 2026-05-05 22:48 | 8.85211 | -79.50304 | 8047 ft | 294 kts | 207° |
| 2026-05-05 22:48 | 8.83364 | -79.51220 | 8711 ft | 297 kts | 197° |
| 2026-05-05 22:48 | 8.81313 | -79.51393 | 9424 ft | 297 kts | 174° |
| 2026-05-05 22:48 | 8.79244 | -79.51198 | 10130 ft | 300 kts | 173° |
| 2026-05-05 22:49 | 8.77121 | -79.50970 | 10435 ft | 318 kts | 173° |
| 2026-05-05 22:49 | 8.74875 | -79.50731 | 10606 ft | 338 kts | 173° |
| 2026-05-05 22:49 | 8.72492 | -79.50491 | 10967 ft | 349 kts | 173° |
| 2026-05-05 22:49 | 8.70061 | -79.50261 | 11567 ft | 352 kts | 173° |
| 2026-05-05 22:50 | 8.67615 | -79.50039 | 12206 ft | 354 kts | 174° |
| 2026-05-05 22:50 | 8.65150 | -79.49824 | 12854 ft | 357 kts | 174° |
| 2026-05-05 22:50 | 8.62665 | -79.49611 | 13478 ft | 360 kts | 174° |
| 2026-05-05 22:50 | 8.60150 | -79.49398 | 14060 ft | 364 kts | 174° |
| 2026-05-05 22:51 | 8.57622 | -79.49186 | 14649 ft | 366 kts | 173° |
| 2026-05-05 22:51 | 8.55068 | -79.48973 | 15247 ft | 369 kts | 173° |
| 2026-05-05 22:51 | 8.52526 | -79.48761 | 15839 ft | 372 kts | 173° |
| 2026-05-05 22:51 | 8.49939 | -79.48546 | 16416 ft | 375 kts | 173° |
| 2026-05-05 22:52 | 8.47328 | -79.48329 | 16985 ft | 378 kts | 173° |
| 2026-05-05 22:52 | 8.44690 | -79.48110 | 17549 ft | 381 kts | 173° |
| 2026-05-05 22:52 | 8.42000 | -79.47886 | 18110 ft | 385 kts | 173° |
| 2026-05-05 22:52 | 8.39357 | -79.47666 | 18575 ft | 388 kts | 173° |
| 2026-05-05 22:53 | 8.36658 | -79.47442 | 19027 ft | 391 kts | 173° |
| 2026-05-05 22:53 | 8.33935 | -79.47215 | 19480 ft | 395 kts | 173° |
| 2026-05-05 22:53 | 8.31183 | -79.46987 | 19930 ft | 398 kts | 173° |
| 2026-05-05 22:53 | 8.28411 | -79.46757 | 20377 ft | 401 kts | 173° |
| 2026-05-05 22:54 | 8.25616 | -79.46525 | 20814 ft | 404 kts | 174° |
| 2026-05-05 22:54 | 8.22803 | -79.46291 | 21250 ft | 407 kts | 174° |
| 2026-05-05 22:54 | 8.19966 | -79.46056 | 21678 ft | 411 kts | 174° |
| 2026-05-05 22:54 | 8.17108 | -79.45818 | 22098 ft | 414 kts | 174° |
| 2026-05-05 22:55 | 8.14226 | -79.45579 | 22508 ft | 417 kts | 174° |
| 2026-05-05 22:55 | 8.11329 | -79.45339 | 22911 ft | 420 kts | 174° |
| 2026-05-05 22:55 | 8.08402 | -79.45096 | 23306 ft | 423 kts | 174° |
| 2026-05-05 22:55 | 8.05457 | -79.44851 | 23654 ft | 426 kts | 174° |
| 2026-05-05 22:56 | 8.02490 | -79.44605 | 24001 ft | 428 kts | 174° |
| 2026-05-05 22:56 | 7.99516 | -79.44359 | 24368 ft | 430 kts | 174° |
| 2026-05-05 22:56 | 7.96529 | -79.44111 | 24705 ft | 431 kts | 174° |
| 2026-05-05 22:56 | 7.93522 | -79.43861 | 25039 ft | 434 kts | 174° |
| 2026-05-05 22:57 | 7.90506 | -79.43611 | 25366 ft | 436 kts | 174° |
| 2026-05-05 22:57 | 7.87478 | -79.43360 | 25693 ft | 438 kts | 174° |
| 2026-05-05 22:57 | 7.84433 | -79.43108 | 26022 ft | 440 kts | 174° |
| 2026-05-05 22:57 | 7.81379 | -79.42855 | 26367 ft | 441 kts | 174° |
| 2026-05-05 22:58 | 7.78322 | -79.42601 | 26721 ft | 442 kts | 174° |
| 2026-05-05 22:58 | 7.75251 | -79.42347 | 27003 ft | 444 kts | 174° |
| 2026-05-05 22:58 | 7.72156 | -79.42090 | 27284 ft | 447 kts | 174° |
| 2026-05-05 22:58 | 7.69090 | -79.41836 | 27577 ft | 449 kts | 174° |
| 2026-05-05 22:59 | 7.65932 | -79.41574 | 27882 ft | 451 kts | 174° |
| 2026-05-05 22:59 | 7.62800 | -79.41315 | 28176 ft | 452 kts | 174° |
| 2026-05-05 22:59 | 7.59659 | -79.41055 | 28456 ft | 454 kts | 174° |
| 2026-05-05 22:59 | 7.56538 | -79.40796 | 28728 ft | 456 kts | 174° |
| 2026-05-05 23:00 | 7.50174 | -79.40269 | 29255 ft | 460 kts | 174° |
| 2026-05-05 23:00 | 7.46981 | -79.40005 | 29524 ft | 462 kts | 174° |
| 2026-05-05 23:00 | 7.43769 | -79.39739 | 29790 ft | 464 kts | 174° |
| 2026-05-05 23:01 | 7.40543 | -79.39472 | 30012 ft | 466 kts | 174° |
| 2026-05-05 23:01 | 7.37307 | -79.39205 | 30214 ft | 467 kts | 174° |
| 2026-05-05 23:01 | 7.34057 | -79.38936 | 30416 ft | 469 kts | 174° |
| 2026-05-05 23:01 | 7.30798 | -79.38666 | 30623 ft | 470 kts | 174° |
| 2026-05-05 23:02 | 7.27538 | -79.38370 | 30881 ft | 470 kts | 173° |
| 2026-05-05 23:02 | 7.24292 | -79.38004 | 31196 ft | 469 kts | 172° |
| 2026-05-05 23:02 | 7.21056 | -79.37606 | 31501 ft | 468 kts | 172° |
| 2026-05-05 23:02 | 7.17825 | -79.37200 | 31770 ft | 468 kts | 172° |
| 2026-05-05 23:03 | 7.14591 | -79.36796 | 32039 ft | 468 kts | 172° |
| 2026-05-05 23:03 | 7.11359 | -79.36398 | 32335 ft | 468 kts | 172° |
| 2026-05-05 23:03 | 7.08129 | -79.36007 | 32637 ft | 467 kts | 172° |
| 2026-05-05 23:03 | 7.04905 | -79.35622 | 32925 ft | 467 kts | 172° |
| 2026-05-05 23:04 | 7.01682 | -79.35239 | 33209 ft | 467 kts | 172° |
| 2026-05-05 23:04 | 6.98452 | -79.34856 | 33507 ft | 466 kts | 172° |
| 2026-05-05 23:04 | 6.95233 | -79.34475 | 33809 ft | 466 kts | 172° |
| 2026-05-05 23:04 | 6.92053 | -79.34099 | 34066 ft | 465 kts | 172° |
| 2026-05-05 23:05 | 6.88836 | -79.33718 | 34341 ft | 464 kts | 172° |
| 2026-05-05 23:05 | 6.85631 | -79.33339 | 34634 ft | 463 kts | 172° |
| 2026-05-05 23:05 | 6.82429 | -79.32960 | 34902 ft | 462 kts | 172° |
| 2026-05-05 23:05 | 6.79238 | -79.32582 | 35155 ft | 462 kts | 172° |
| 2026-05-05 23:06 | 6.76053 | -79.32204 | 35411 ft | 461 kts | 172° |
| 2026-05-05 23:06 | 6.72871 | -79.31827 | 35688 ft | 459 kts | 172° |
| 2026-05-05 23:06 | 6.69699 | -79.31452 | 35975 ft | 458 kts | 172° |
| 2026-05-05 23:06 | 6.66537 | -79.31078 | 36233 ft | 457 kts | 172° |
| 2026-05-05 23:07 | 6.63379 | -79.30704 | 36435 ft | 457 kts | 172° |
| 2026-05-05 23:07 | 6.60213 | -79.30329 | 36643 ft | 457 kts | 172° |
| 2026-05-05 23:07 | 6.57053 | -79.29955 | 36867 ft | 457 kts | 172° |
| 2026-05-05 23:07 | 6.53914 | -79.29583 | 36858 ft | 461 kts | 172° |
| 2026-05-05 23:08 | 6.47540 | -79.28829 | 36870 ft | 461 kts | 172° |
| 2026-05-05 23:08 | 6.41204 | -79.28080 | 36865 ft | 455 kts | 172° |
| 2026-05-05 23:09 | 6.34929 | -79.27338 | 36873 ft | 453 kts | 172° |
| 2026-05-05 23:09 | 6.29693 | -79.26718 | 36874 ft | 452 kts | 172° |
| 2026-05-05 23:10 | 6.23496 | -79.25986 | 36875 ft | 451 kts | 172° |
| 2026-05-05 23:10 | 6.17250 | -79.25247 | 36876 ft | 452 kts | 172° |
| 2026-05-05 23:11 | 6.10994 | -79.24508 | 36874 ft | 453 kts | 172° |
| 2026-05-05 23:11 | 6.04731 | -79.23768 | 36874 ft | 454 kts | 172° |
| 2026-05-05 23:12 | 5.98451 | -79.23026 | 36876 ft | 455 kts | 172° |
| 2026-05-05 23:12 | 5.92138 | -79.22282 | 36876 ft | 457 kts | 172° |
| 2026-05-05 23:13 | 5.85856 | -79.21551 | 36874 ft | 458 kts | 172° |
| 2026-05-05 23:13 | 5.79527 | -79.20817 | 36873 ft | 458 kts | 172° |
| 2026-05-05 23:14 | 5.73182 | -79.20081 | 36875 ft | 459 kts | 172° |
| 2026-05-05 23:14 | 5.66839 | -79.19344 | 36873 ft | 458 kts | 172° |
| 2026-05-05 23:15 | 5.60511 | -79.18609 | 36874 ft | 458 kts | 172° |
| 2026-05-05 23:15 | 5.54182 | -79.17874 | 36876 ft | 457 kts | 172° |
| 2026-05-05 23:16 | 5.47864 | -79.17140 | 36873 ft | 456 kts | 172° |
| 2026-05-05 23:16 | 5.41562 | -79.16408 | 36873 ft | 455 kts | 172° |
| 2026-05-05 23:17 | 5.35310 | -79.15683 | 36877 ft | 455 kts | 173° |
| 2026-05-05 23:17 | 5.29026 | -79.14953 | 36876 ft | 454 kts | 173° |
| 2026-05-05 23:18 | 5.22755 | -79.14226 | 36875 ft | 453 kts | 173° |
| 2026-05-05 23:18 | 5.16493 | -79.13499 | 36878 ft | 453 kts | 173° |
| 2026-05-05 23:19 | 5.10228 | -79.12772 | 36876 ft | 453 kts | 173° |
| 2026-05-05 23:19 | 5.03964 | -79.12046 | 36880 ft | 453 kts | 173° |
| 2026-05-05 23:20 | 4.97699 | -79.11320 | 36881 ft | 454 kts | 173° |
| 2026-05-05 23:20 | 4.91416 | -79.10591 | 36880 ft | 454 kts | 173° |
| 2026-05-05 23:21 | 4.85561 | -79.09913 | 36878 ft | 455 kts | 172° |
| 2026-05-05 23:21 | 4.79681 | -79.09218 | 36880 ft | 455 kts | 172° |
| 2026-05-05 23:22 | 4.73381 | -79.08486 | 36879 ft | 455 kts | 172° |
| 2026-05-05 23:22 | 4.73080 | -79.08451 | 36880 ft | 455 kts | 172° |